createdAt,value
2022-09-23T00:02:06.974Z,52.98
2022-09-23T00:05:10.385Z,52.97
2022-09-23T00:08:12.515Z,53.01
2022-09-23T00:11:32.979Z,53.01
2022-09-23T00:14:36.298Z,53.00
2022-09-23T00:17:38.396Z,53.04
2022-09-23T00:20:40.456Z,53.08
2022-09-23T00:23:43.505Z,53.06
2022-09-23T00:26:45.790Z,53.06
2022-09-23T00:29:48.621Z,53.07
2022-09-23T00:32:52.827Z,53.09
2022-09-23T00:35:59.940Z,53.09
2022-09-23T00:39:04.516Z,53.12
2022-09-23T00:42:12.647Z,53.12
2022-09-23T00:45:15.423Z,53.14
2022-09-23T00:48:20.451Z,53.17
2022-09-23T00:51:25.280Z,53.18
2022-09-23T00:54:29.267Z,53.15
2022-09-23T00:57:31.988Z,53.20
2022-09-23T01:00:35.535Z,53.20
2022-09-23T01:03:37.725Z,53.19
2022-09-23T01:06:39.726Z,53.22
2022-09-23T01:09:41.796Z,53.23
2022-09-23T01:13:02.533Z,53.25
2022-09-23T01:16:34.301Z,53.25
2022-09-23T01:19:36.334Z,53.27
2022-09-23T01:22:53.721Z,53.28
2022-09-23T01:26:23.081Z,53.28
2022-09-23T01:29:33.285Z,53.32
2022-09-23T01:32:49.105Z,53.27
2022-09-23T01:36:02.707Z,53.33
2022-09-23T01:39:32.454Z,53.33
2022-09-23T01:42:44.601Z,53.36
2022-09-23T01:45:47.987Z,53.40
2022-09-23T01:48:59.581Z,53.38
2022-09-23T01:52:10.983Z,53.36
2022-09-23T01:55:19.914Z,53.42
2022-09-23T01:58:31.699Z,53.43
2022-09-23T02:01:39.191Z,53.40
2022-09-23T02:04:51.434Z,53.39
2022-09-23T02:08:03.130Z,53.47
2022-09-23T02:11:11.644Z,53.49
2022-09-23T02:14:20.071Z,53.46
2022-09-23T02:17:48.274Z,53.51
2022-09-23T02:20:55.727Z,53.54
2022-09-23T02:24:05.546Z,53.53
2022-09-23T02:27:21.898Z,53.55
2022-09-23T02:30:35.540Z,53.60
2022-09-23T02:33:43.472Z,53.59
2022-09-23T02:37:04.167Z,53.55
2022-09-23T02:40:12.686Z,53.62
2022-09-23T02:43:50.304Z,53.61
2022-09-23T02:46:53.001Z,53.66
2022-09-23T02:49:56.276Z,53.65
2022-09-23T02:52:59.862Z,53.65
2022-09-23T02:56:02.935Z,53.67
2022-09-23T02:59:06.096Z,53.70
2022-09-23T03:02:16.894Z,53.67
2022-09-23T03:05:24.803Z,53.70
2022-09-23T03:08:43.006Z,53.68
2022-09-23T03:11:53.046Z,53.72
2022-09-23T03:15:04.753Z,53.73
2022-09-23T03:18:34.309Z,53.74
2022-09-23T03:21:45.543Z,53.79
2022-09-23T03:24:53.754Z,53.80
2022-09-23T03:27:58.912Z,53.78
2022-09-23T03:31:01.123Z,53.84
2022-09-23T03:34:08.610Z,53.82
2022-09-23T03:37:34.903Z,53.83
2022-09-23T03:40:43.290Z,53.81
2022-09-23T03:43:46.014Z,53.81
2022-09-23T03:46:51.502Z,53.80
2022-09-23T03:49:54.629Z,53.86
2022-09-23T03:52:56.760Z,53.89
2022-09-23T03:55:58.864Z,53.93
2022-09-23T03:59:00.906Z,53.93
2022-09-23T04:02:03.706Z,53.88
2022-09-23T04:05:07.189Z,53.91
2022-09-23T04:08:09.193Z,53.94
2022-09-23T04:11:11.253Z,53.94
2022-09-23T04:14:13.485Z,53.97
2022-09-23T04:17:15.812Z,53.95
2022-09-23T04:20:18.970Z,54.03
2022-09-23T04:23:20.967Z,53.98
2022-09-23T04:26:23.118Z,54.02
2022-09-23T04:29:25.784Z,54.07
2022-09-23T04:32:27.914Z,54.09
2022-09-23T04:35:30.136Z,54.10
2022-09-23T04:38:32.467Z,54.07
2022-09-23T04:41:34.507Z,54.06
2022-09-23T04:44:36.672Z,54.08
2022-09-23T04:47:38.707Z,54.07
2022-09-23T04:50:41.522Z,54.09
2022-09-23T04:53:45.308Z,54.12
2022-09-23T04:56:47.303Z,54.13
2022-09-23T04:59:49.310Z,54.19
2022-09-23T05:02:51.513Z,54.17
2022-09-23T05:05:55.097Z,54.19
2022-09-23T05:08:59.026Z,54.23
2022-09-23T05:12:02.123Z,54.39
2022-09-23T05:15:05.183Z,54.36
2022-09-23T05:18:07.238Z,54.48
2022-09-23T05:21:10.976Z,54.54
2022-09-23T05:24:13.180Z,54.55
2022-09-23T05:27:15.258Z,54.57
2022-09-23T05:30:17.354Z,54.59
2022-09-23T05:33:19.484Z,54.65
2022-09-23T05:36:24.886Z,54.86
2022-09-23T05:39:26.880Z,54.85
2022-09-23T05:42:29.708Z,54.85
2022-09-23T05:45:32.032Z,54.85
2022-09-23T05:48:35.538Z,54.84
2022-09-23T05:51:37.557Z,54.87
2022-09-23T05:54:40.404Z,54.99
2022-09-23T05:57:42.470Z,54.96
2022-09-23T06:00:44.621Z,54.86
2022-09-23T06:03:48.083Z,54.94
2022-09-23T06:06:50.241Z,55.11
2022-09-23T06:09:53.962Z,55.56
2022-09-23T06:12:56.203Z,56.02
2022-09-23T06:15:58.580Z,55.71
2022-09-23T06:19:05.914Z,55.86
2022-09-23T06:22:08.735Z,55.82
2022-09-23T06:25:11.232Z,55.77
2022-09-23T06:28:14.472Z,55.31
2022-09-23T06:31:17.482Z,55.59
2022-09-23T06:34:19.954Z,55.72
2022-09-23T06:37:28.501Z,55.74
2022-09-23T06:40:31.254Z,55.58
2022-09-23T06:43:33.883Z,52.80
2022-09-23T06:46:36.888Z,53.23
2022-09-23T06:49:39.029Z,53.98
2022-09-23T06:52:42.029Z,52.85
2022-09-23T06:55:44.296Z,52.87
2022-09-23T06:58:46.847Z,54.68
2022-09-23T07:01:50.520Z,54.03
2022-09-23T07:04:53.360Z,54.58
2022-09-23T07:07:55.387Z,54.80
2022-09-23T07:10:59.403Z,54.47
2022-09-23T07:14:01.602Z,54.48
2022-09-23T07:17:03.660Z,54.30
2022-09-23T07:20:06.104Z,54.21
2022-09-23T07:23:08.096Z,54.06
2022-09-23T07:26:10.318Z,54.31
2022-09-23T07:29:13.900Z,54.13
2022-09-23T07:32:16.587Z,54.26
2022-09-23T07:35:18.892Z,53.91
2022-09-23T07:38:22.307Z,54.19
2022-09-23T07:41:26.075Z,53.98
2022-09-23T07:44:29.133Z,53.88
2022-09-23T07:47:31.461Z,53.93
2022-09-23T07:50:33.763Z,54.12
2022-09-23T07:53:36.688Z,54.04
2022-09-23T07:56:40.153Z,54.10
2022-09-23T07:59:43.113Z,54.01
2022-09-23T08:02:48.399Z,54.29
2022-09-23T08:05:53.264Z,53.81
2022-09-23T08:08:58.552Z,53.75
2022-09-23T08:12:00.865Z,53.68
2022-09-23T08:15:03.016Z,53.66
2022-09-23T08:18:05.308Z,53.42
2022-09-23T08:21:07.315Z,53.47
2022-09-23T08:24:14.195Z,53.50
2022-09-23T08:27:16.363Z,53.27
2022-09-23T08:30:18.419Z,53.19
2022-09-23T08:33:23.303Z,53.27
2022-09-23T08:36:26.783Z,53.13
2022-09-23T08:39:28.849Z,53.38
2022-09-23T08:42:33.660Z,53.45
2022-09-23T08:45:37.818Z,53.65
2022-09-23T08:48:45.586Z,53.67
2022-09-23T08:51:51.664Z,53.50
2022-09-23T08:54:55.616Z,53.34
2022-09-23T08:58:35.141Z,53.47
2022-09-23T09:01:44.786Z,53.62
2022-09-23T09:04:52.340Z,53.54
2022-09-23T09:07:58.211Z,53.39
2022-09-23T09:11:01.311Z,53.28
2022-09-23T09:14:31.879Z,53.21
2022-09-23T09:17:50.875Z,53.21
2022-09-23T09:21:13.150Z,53.21
2022-09-23T09:24:26.228Z,53.39
2022-09-23T09:27:28.397Z,53.33
2022-09-23T09:30:32.348Z,53.46
2022-09-23T09:33:45.876Z,53.56
2022-09-23T09:37:11.341Z,53.56
2022-09-23T09:40:16.886Z,53.65
2022-09-23T09:43:26.121Z,53.39
2022-09-23T09:47:01.230Z,53.59
2022-09-23T09:50:22.219Z,53.79
2022-09-23T09:53:28.045Z,53.86
2022-09-23T09:56:34.874Z,53.89
2022-09-23T09:59:42.956Z,53.98
2022-09-23T10:02:46.340Z,53.61
2022-09-23T10:05:54.312Z,53.80
2022-09-23T10:09:10.458Z,53.95
2022-09-23T10:12:24.612Z,53.37
2022-09-23T10:15:33.085Z,52.72
2022-09-23T10:18:57.831Z,52.33
2022-09-23T10:22:04.748Z,50.79
2022-09-23T10:25:19.128Z,51.98
2022-09-23T10:28:36.727Z,53.24
2022-09-23T10:31:38.757Z,53.49
2022-09-23T10:34:45.384Z,53.59
2022-09-23T10:37:53.583Z,53.87
2022-09-23T10:41:16.007Z,54.17
2022-09-23T10:44:48.256Z,54.28
2022-09-23T10:48:19.223Z,54.28
2022-09-23T10:51:33.805Z,54.56
2022-09-23T10:54:50.804Z,54.94
2022-09-23T10:58:04.298Z,55.13
2022-09-23T11:01:34.726Z,55.19
2022-09-23T11:05:00.871Z,55.74
2022-09-23T11:08:18.297Z,55.42
2022-09-23T11:11:33.970Z,56.03
2022-09-23T11:14:51.851Z,56.82
2022-09-23T11:18:26.529Z,56.40
2022-09-23T11:21:59.200Z,57.16
2022-09-23T11:25:30.156Z,57.39
2022-09-23T11:28:56.154Z,57.23
2022-09-23T11:32:26.127Z,57.40
2022-09-23T11:35:41.677Z,57.28
2022-09-23T11:38:48.101Z,56.68
2022-09-23T11:41:54.457Z,56.59
2022-09-23T11:45:03.093Z,56.36
2022-09-23T11:48:12.633Z,56.22
2022-09-23T11:51:40.407Z,55.69
2022-09-23T11:55:07.503Z,55.16
2022-09-23T11:58:25.866Z,54.46
2022-09-23T12:01:45.394Z,54.55
2022-09-23T12:05:09.111Z,54.73
2022-09-23T12:08:33.240Z,54.16
2022-09-23T12:12:11.829Z,54.87
2022-09-23T12:15:24.865Z,55.00
2022-09-23T12:18:56.376Z,55.09
2022-09-23T12:22:15.450Z,54.95
2022-09-23T12:25:30.716Z,53.40
2022-09-23T12:28:37.674Z,53.59
2022-09-23T12:31:43.088Z,54.03
2022-09-23T12:34:49.856Z,54.35
2022-09-23T12:37:52.662Z,54.19
2022-09-23T12:40:55.764Z,54.52
2022-09-23T12:44:25.363Z,53.27
2022-09-23T12:47:35.813Z,52.82
2022-09-23T12:50:57.072Z,53.61
2022-09-23T12:54:03.452Z,52.88
2022-09-23T12:57:13.271Z,53.52
2022-09-23T13:00:25.901Z,53.99
2022-09-23T13:03:46.573Z,53.88
2022-09-23T13:07:05.911Z,53.99
2022-09-23T13:10:18.277Z,53.93
2022-09-23T13:13:32.000Z,53.77
2022-09-23T13:16:43.612Z,53.78
2022-09-23T13:19:46.247Z,53.77
2022-09-23T13:22:53.750Z,53.61
2022-09-23T13:26:01.464Z,53.41
2022-09-23T13:29:05.732Z,53.52
2022-09-23T13:32:14.985Z,53.41
2022-09-23T13:35:29.673Z,53.57
2022-09-23T13:38:35.974Z,54.65
2022-09-23T13:41:38.231Z,54.94
2022-09-23T13:44:40.919Z,55.01
2022-09-23T13:47:44.487Z,55.07
2022-09-23T13:50:53.224Z,55.29
2022-09-23T13:53:57.420Z,55.31
2022-09-23T13:57:00.406Z,55.68
2022-09-23T14:00:17.213Z,55.31
2022-09-23T14:03:37.137Z,55.58
2022-09-23T14:06:41.841Z,55.61
2022-09-23T14:09:48.183Z,55.85
2022-09-23T14:12:52.018Z,55.97
2022-09-23T14:15:59.139Z,55.66
2022-09-23T14:19:01.612Z,55.87
2022-09-23T14:22:03.870Z,55.87
2022-09-23T14:25:13.162Z,55.83
2022-09-23T14:28:23.703Z,55.93
2022-09-23T14:31:25.943Z,56.00
2022-09-23T14:34:49.773Z,56.04
2022-09-23T14:38:16.372Z,56.08
2022-09-23T14:41:24.927Z,56.14
2022-09-23T14:44:28.017Z,56.16
2022-09-23T14:47:31.506Z,56.10
2022-09-23T14:50:36.936Z,56.23
2022-09-23T14:53:45.641Z,56.19
2022-09-23T14:56:47.847Z,56.23
2022-09-23T15:00:06.581Z,56.20
2022-09-23T15:03:17.512Z,56.20
2022-09-23T15:06:21.346Z,56.16
2022-09-23T15:09:27.190Z,56.17
2022-09-23T15:12:29.787Z,56.19
2022-09-23T15:15:31.917Z,56.16
2022-09-23T15:18:36.559Z,56.17
2022-09-23T15:21:44.950Z,56.13
2022-09-23T15:24:47.141Z,56.17
2022-09-23T15:28:03.206Z,56.15
2022-09-23T15:31:09.961Z,55.97
2022-09-23T15:34:11.994Z,56.15
2022-09-23T15:37:14.044Z,56.29
2022-09-23T15:40:34.116Z,56.57
2022-09-23T15:43:36.259Z,56.33
2022-09-23T15:46:39.884Z,56.47
2022-09-23T15:49:45.797Z,56.35
2022-09-23T15:52:47.906Z,56.39
2022-09-23T15:55:51.510Z,56.34
2022-09-23T15:58:53.540Z,56.37
2022-09-23T16:01:57.390Z,56.36
2022-09-23T16:05:01.159Z,56.35
2022-09-23T16:08:08.743Z,56.30
2022-09-23T16:11:31.702Z,56.30
2022-09-23T16:14:33.805Z,56.32
2022-09-23T16:17:36.524Z,56.36
2022-09-23T16:20:44.641Z,56.25
2022-09-23T16:23:49.249Z,56.32
2022-09-23T16:26:51.399Z,56.60
2022-09-23T16:29:53.606Z,56.56
2022-09-23T16:32:56.336Z,56.45
2022-09-23T16:36:00.863Z,56.42
2022-09-23T16:39:05.687Z,56.42
2022-09-23T16:42:07.745Z,56.45
2022-09-23T16:45:11.138Z,56.42
2022-09-23T16:48:13.647Z,56.45
2022-09-23T16:51:24.343Z,56.53
2022-09-23T16:54:26.361Z,56.48
2022-09-23T16:57:29.875Z,56.58
2022-09-23T17:00:50.511Z,56.53
2022-09-23T17:03:53.206Z,56.62
2022-09-23T17:06:56.033Z,56.69
2022-09-23T17:09:58.329Z,56.64
2022-09-23T17:13:00.517Z,56.70
2022-09-23T17:16:03.173Z,56.73
2022-09-23T17:19:10.281Z,56.65
2022-09-23T17:22:12.372Z,56.68
2022-09-23T17:25:14.640Z,56.67
2022-09-23T17:28:16.727Z,56.74
2022-09-23T17:31:18.864Z,56.71
2022-09-23T17:34:20.947Z,56.73
2022-09-23T17:37:22.977Z,56.71
2022-09-23T17:40:26.100Z,56.85
2022-09-23T17:43:31.506Z,56.64
2022-09-23T17:46:33.567Z,56.59
2022-09-23T17:49:35.556Z,56.69
2022-09-23T17:52:37.615Z,56.50
2022-09-23T17:55:39.633Z,56.56
2022-09-23T17:58:42.866Z,56.70
2022-09-23T18:01:44.928Z,56.58
2022-09-23T18:04:47.231Z,56.56
2022-09-23T18:07:49.221Z,56.58
2022-09-23T18:10:51.226Z,56.52
2022-09-23T18:13:55.664Z,56.51
2022-09-23T18:16:57.671Z,56.52
2022-09-23T18:19:59.786Z,56.50
2022-09-23T18:23:01.788Z,56.51
2022-09-23T18:26:04.634Z,56.48
2022-09-23T18:29:07.305Z,56.47
2022-09-23T18:32:13.819Z,56.45
2022-09-23T18:35:16.653Z,56.39
2022-09-23T18:38:19.039Z,56.48
2022-09-23T18:41:21.959Z,56.41
2022-09-23T18:44:24.316Z,56.45
2022-09-23T18:47:46.444Z,56.46
2022-09-23T18:50:49.230Z,56.47
2022-09-23T18:53:57.337Z,56.52
2022-09-23T18:56:59.405Z,56.34
2022-09-23T19:00:01.526Z,56.44
2022-09-23T19:03:04.073Z,56.45
2022-09-23T19:06:08.513Z,56.48
2022-09-23T19:09:12.047Z,56.46
2022-09-23T19:12:14.076Z,56.45
2022-09-23T19:15:16.452Z,56.48
2022-09-23T19:18:20.245Z,56.48
2022-09-23T19:21:23.195Z,56.39
2022-09-23T19:24:25.188Z,56.36
2022-09-23T19:27:27.165Z,56.47
2022-09-23T19:30:29.157Z,56.45
2022-09-23T19:33:31.166Z,56.37
2022-09-23T19:36:37.592Z,56.44
2022-09-23T19:39:40.725Z,56.51
2022-09-23T19:42:43.035Z,56.45
2022-09-23T19:45:52.534Z,56.49
2022-09-23T19:48:54.525Z,56.47
2022-09-23T19:51:56.867Z,56.47
2022-09-23T19:54:58.924Z,56.51
2022-09-23T19:58:01.018Z,56.40
2022-09-23T20:01:07.661Z,56.43
2022-09-23T20:04:09.748Z,56.46
2022-09-23T20:07:11.889Z,56.46
2022-09-23T20:10:14.121Z,56.48
2022-09-23T20:13:17.501Z,56.44
2022-09-23T20:16:20.520Z,56.39
2022-09-23T20:19:22.574Z,56.42
2022-09-23T20:22:27.514Z,56.39
2022-09-23T20:25:52.895Z,56.41
2022-09-23T20:28:55.175Z,56.43
2022-09-23T20:31:58.553Z,56.34
2022-09-23T20:35:00.932Z,56.37
2022-09-23T20:38:07.875Z,56.36
2022-09-23T20:41:10.136Z,56.42
2022-09-23T20:44:12.432Z,56.32
2022-09-23T20:47:16.581Z,56.36
2022-09-23T20:50:19.392Z,56.29
2022-09-23T20:53:23.212Z,56.29
2022-09-23T20:56:25.629Z,56.23
2022-09-23T20:59:27.872Z,56.32
2022-09-23T21:02:29.931Z,56.24
2022-09-23T21:05:34.392Z,56.28
2022-09-23T21:08:37.445Z,56.25
2022-09-23T21:11:39.582Z,56.26
2022-09-23T21:14:41.745Z,56.31
2022-09-23T21:17:43.729Z,56.27
2022-09-23T21:20:55.163Z,56.26
2022-09-23T21:24:17.238Z,56.26
2022-09-23T21:27:22.020Z,56.24
2022-09-23T21:30:24.219Z,56.27
2022-09-23T21:33:26.896Z,56.26
2022-09-23T21:36:31.503Z,56.26
2022-09-23T21:39:33.535Z,56.28
2022-09-23T21:42:35.540Z,56.23
2022-09-23T21:45:37.534Z,56.29
2022-09-23T21:48:41.326Z,56.27
2022-09-23T21:51:43.330Z,56.36
2022-09-23T21:54:46.454Z,56.36
2022-09-23T21:57:48.717Z,56.45
2022-09-23T22:00:50.836Z,56.42
2022-09-23T22:03:55.480Z,56.45
2022-09-23T22:07:00.051Z,56.47
2022-09-23T22:10:02.222Z,56.61
2022-09-23T22:13:12.043Z,56.55
2022-09-23T22:16:16.666Z,56.61
2022-09-23T22:19:18.835Z,56.61
2022-09-23T22:22:20.882Z,56.61
2022-09-23T22:25:22.970Z,56.58
2022-09-23T22:28:43.767Z,56.61
2022-09-23T22:32:04.593Z,56.58
2022-09-23T22:35:19.337Z,56.62
2022-09-23T22:38:21.397Z,56.56
2022-09-23T22:41:25.378Z,56.58
2022-09-23T22:44:29.299Z,56.58
2022-09-23T22:47:39.040Z,56.61
2022-09-23T22:50:41.018Z,56.58
2022-09-23T22:53:43.096Z,56.64
2022-09-23T22:56:45.180Z,56.62
2022-09-23T22:59:50.680Z,56.52
2022-09-23T23:02:54.420Z,56.62
2022-09-23T23:06:00.773Z,56.61
2022-09-23T23:09:08.906Z,56.58
2022-09-23T23:12:10.905Z,56.61
2022-09-23T23:15:13.077Z,56.65
2022-09-23T23:18:15.375Z,56.68
2022-09-23T23:21:19.647Z,56.67
2022-09-23T23:24:25.003Z,56.68
2022-09-23T23:27:27.195Z,56.64
2022-09-23T23:30:29.243Z,56.61
2022-09-23T23:33:31.512Z,56.61
2022-09-23T23:36:33.569Z,56.66
2022-09-23T23:39:35.685Z,56.70
2022-09-23T23:42:37.738Z,56.71
2022-09-23T23:45:39.777Z,56.68
2022-09-23T23:48:48.022Z,56.71
2022-09-23T23:51:50.155Z,56.67
2022-09-23T23:54:52.208Z,56.69
2022-09-23T23:57:54.304Z,56.68
